sensor_id;sensor_type;location;lat;lon;timestamp;temperature;humidity
7325;DHT22;3703;48.016;7.802;2023-08-06T00:06:19;16.50;1.00
7325;DHT22;3703;48.016;7.802;2023-08-06T00:16:10;16.40;10.70
7325;DHT22;3703;48.016;7.802;2023-08-06T00:23:33;16.40;11.90
7325;DHT22;3703;48.016;7.802;2023-08-06T00:33:24;16.80;1.00
7325;DHT22;3703;48.016;7.802;2023-08-06T00:35:52;16.70;1.00
7325;DHT22;3703;48.016;7.802;2023-08-06T00:40:47;16.90;1.00
7325;DHT22;3703;48.016;7.802;2023-08-06T00:55:33;16.90;1.00
7325;DHT22;3703;48.016;7.802;2023-08-06T00:58:02;17.00;1.00
7325;DHT22;3703;48.016;7.802;2023-08-06T01:08:08;17.20;1.00
7325;DHT22;3703;48.016;7.802;2023-08-06T01:10:48;17.10;1.00
7325;DHT22;3703;48.016;7.802;2023-08-06T01:13:30;16.90;1.00
7325;DHT22;3703;48.016;7.802;2023-08-06T01:16:00;16.90;1.00
7325;DHT22;3703;48.016;7.802;2023-08-06T01:20:58;17.00;1.00
7325;DHT22;3703;48.016;7.802;2023-08-06T01:25:59;17.00;1.00
7325;DHT22;3703;48.016;7.802;2023-08-06T01:28:36;17.00;1.00
7325;DHT22;3703;48.016;7.802;2023-08-06T01:31:10;16.20;1.00
7325;DHT22;3703;48.016;7.802;2023-08-06T01:33:44;17.10;1.00
7325;DHT22;3703;48.016;7.802;2023-08-06T01:36:16;17.00;1.00
7325;DHT22;3703;48.016;7.802;2023-08-06T01:53:31;17.00;1.00
7325;DHT22;3703;48.016;7.802;2023-08-06T02:10:44;16.90;8.80
7325;DHT22;3703;48.016;7.802;2023-08-06T02:15:42;16.90;17.90
7325;DHT22;3703;48.016;7.802;2023-08-06T02:28:01;16.40;56.60
7325;DHT22;3703;48.016;7.802;2023-08-06T02:45:14;16.50;69.10
7325;DHT22;3703;48.016;7.802;2023-08-06T02:47:41;16.40;74.70
7325;DHT22;3703;48.016;7.802;2023-08-06T02:55:05;16.40;47.30
7325;DHT22;3703;48.016;7.802;2023-08-06T03:02:29;16.20;43.50
7325;DHT22;3703;48.016;7.802;2023-08-06T03:19:44;15.50;56.90
7325;DHT22;3703;48.016;7.802;2023-08-06T03:37:00;15.50;15.30
7325;DHT22;3703;48.016;7.802;2023-08-06T03:51:46;15.30;13.80
7325;DHT22;3703;48.016;7.802;2023-08-06T03:54:14;15.20;14.90
7325;DHT22;3703;48.016;7.802;2023-08-06T04:11:30;14.40;36.80
7325;DHT22;3703;48.016;7.802;2023-08-06T04:28:44;14.50;58.70
7325;DHT22;3703;48.016;7.802;2023-08-06T04:36:08;14.80;72.60
7325;DHT22;3703;48.016;7.802;2023-08-06T04:41:04;14.70;56.70
7325;DHT22;3703;48.016;7.802;2023-08-06T04:46:00;14.70;56.10
7325;DHT22;3703;48.016;7.802;2023-08-06T05:03:12;14.00;92.90
7325;DHT22;3703;48.016;7.802;2023-08-06T05:10:42;14.10;99.10
7325;DHT22;3703;48.016;7.802;2023-08-06T05:13:10;13.80;98.20
7325;DHT22;3703;48.016;7.802;2023-08-06T05:20:38;13.90;99.90
7325;DHT22;3703;48.016;7.802;2023-08-06T05:25:37;13.90;99.90
7325;DHT22;3703;48.016;7.802;2023-08-06T05:30:32;14.10;99.90
7325;DHT22;3703;48.016;7.802;2023-08-06T05:37:56;14.00;99.90
7325;DHT22;3703;48.016;7.802;2023-08-06T05:42:52;14.00;99.90
7325;DHT22;3703;48.016;7.802;2023-08-06T06:10:10;14.20;94.20
7325;DHT22;3703;48.016;7.802;2023-08-06T06:12:38;14.30;95.70
7325;DHT22;3703;48.016;7.802;2023-08-06T06:15:07;14.40;95.30
7325;DHT22;3703;48.016;7.802;2023-08-06T06:27:26;14.00;96.30
7325;DHT22;3703;48.016;7.802;2023-08-06T06:44:42;14.20;95.60
7325;DHT22;3703;48.016;7.802;2023-08-06T06:52:05;14.10;99.90
7325;DHT22;3703;48.016;7.802;2023-08-06T07:01:56;14.10;99.10
7325;DHT22;3703;48.016;7.802;2023-08-06T07:19:14;14.20;98.70
7325;DHT22;3703;48.016;7.802;2023-08-06T07:31:32;14.00;99.60
7325;DHT22;3703;48.016;7.802;2023-08-06T07:36:28;14.50;97.90
7325;DHT22;3703;48.016;7.802;2023-08-06T07:53:41;14.60;86.90
7325;DHT22;3703;48.016;7.802;2023-08-06T08:10:57;12.10;93.10
7325;DHT22;3703;48.016;7.802;2023-08-06T08:15:58;14.70;93.20
7325;DHT22;3703;48.016;7.802;2023-08-06T08:28:19;14.70;92.60
7325;DHT22;3703;48.016;7.802;2023-08-06T08:40:40;14.30;99.90
7325;DHT22;3703;48.016;7.802;2023-08-06T08:43:14;14.50;99.90
7325;DHT22;3703;48.016;7.802;2023-08-06T08:45:43;14.50;99.90
7325;DHT22;3703;48.016;7.802;2023-08-06T08:48:15;14.50;97.70
7325;DHT22;3703;48.016;7.802;2023-08-06T08:50:44;14.60;98.00
7325;DHT22;3703;48.016;7.802;2023-08-06T08:53:13;14.80;99.90
7325;DHT22;3703;48.016;7.802;2023-08-06T08:55:43;14.70;97.50
7325;DHT22;3703;48.016;7.802;2023-08-06T09:00:39;14.80;96.50
7325;DHT22;3703;48.016;7.802;2023-08-06T09:03:10;14.80;92.40
7325;DHT22;3703;48.016;7.802;2023-08-06T09:05:39;14.80;95.50
7325;DHT22;3703;48.016;7.802;2023-08-06T09:08:13;14.90;94.80
7325;DHT22;3703;48.016;7.802;2023-08-06T09:10:43;14.80;89.90
7325;DHT22;3703;48.016;7.802;2023-08-06T09:13:10;14.80;94.40
7325;DHT22;3703;48.016;7.802;2023-08-06T09:18:11;14.90;90.50
7325;DHT22;3703;48.016;7.802;2023-08-06T09:20:38;14.80;92.20
7325;DHT22;3703;48.016;7.802;2023-08-06T09:23:09;14.90;83.80
7325;DHT22;3703;48.016;7.802;2023-08-06T09:25:39;15.00;74.10
7325;DHT22;3703;48.016;7.802;2023-08-06T09:28:06;14.70;89.00
7325;DHT22;3703;48.016;7.802;2023-08-06T09:30:35;15.20;89.00
7325;DHT22;3703;48.016;7.802;2023-08-06T09:33:04;15.00;76.50
7325;DHT22;3703;48.016;7.802;2023-08-06T09:35:37;14.80;71.70
7325;DHT22;3703;48.016;7.802;2023-08-06T09:38:09;15.10;69.80
7325;DHT22;3703;48.016;7.802;2023-08-06T09:40:37;15.10;80.70
7325;DHT22;3703;48.016;7.802;2023-08-06T09:43:05;14.60;69.20
7325;DHT22;3703;48.016;7.802;2023-08-06T09:45:34;14.90;69.70
7325;DHT22;3703;48.016;7.802;2023-08-06T09:48:03;14.90;77.00
7325;DHT22;3703;48.016;7.802;2023-08-06T09:50:33;14.90;71.80
7325;DHT22;3703;48.016;7.802;2023-08-06T09:53:03;15.00;75.10
7325;DHT22;3703;48.016;7.802;2023-08-06T09:55:31;15.10;74.10
7325;DHT22;3703;48.016;7.802;2023-08-06T09:57:59;15.10;72.70
7325;DHT22;3703;48.016;7.802;2023-08-06T10:00:26;15.20;70.50
7325;DHT22;3703;48.016;7.802;2023-08-06T10:02:54;15.30;63.20
7325;DHT22;3703;48.016;7.802;2023-08-06T10:05:22;15.20;56.80
7325;DHT22;3703;48.016;7.802;2023-08-06T10:07:52;15.20;62.40
7325;DHT22;3703;48.016;7.802;2023-08-06T10:10:21;15.00;56.40
7325;DHT22;3703;48.016;7.802;2023-08-06T10:12:51;15.30;55.10
7325;DHT22;3703;48.016;7.802;2023-08-06T10:15:22;15.20;58.70
7325;DHT22;3703;48.016;7.802;2023-08-06T10:17:54;15.20;52.30
7325;DHT22;3703;48.016;7.802;2023-08-06T10:20:23;15.00;57.80
7325;DHT22;3703;48.016;7.802;2023-08-06T10:23:01;14.90;58.30
7325;DHT22;3703;48.016;7.802;2023-08-06T10:25:31;14.90;62.60
7325;DHT22;3703;48.016;7.802;2023-08-06T10:27:59;14.80;66.80
7325;DHT22;3703;48.016;7.802;2023-08-06T10:30:28;14.80;61.90
7325;DHT22;3703;48.016;7.802;2023-08-06T10:32:56;14.70;69.80
7325;DHT22;3703;48.016;7.802;2023-08-06T10:35:30;14.70;72.70
7325;DHT22;3703;48.016;7.802;2023-08-06T10:38:00;14.80;67.80
7325;DHT22;3703;48.016;7.802;2023-08-06T10:40:31;14.80;71.90
7325;DHT22;3703;48.016;7.802;2023-08-06T10:42:59;14.70;68.10
7325;DHT22;3703;48.016;7.802;2023-08-06T10:45:27;14.80;73.20
7325;DHT22;3703;48.016;7.802;2023-08-06T10:47:56;14.80;67.50
7325;DHT22;3703;48.016;7.802;2023-08-06T10:50:24;14.80;76.10
7325;DHT22;3703;48.016;7.802;2023-08-06T10:52:52;14.50;93.60
7325;DHT22;3703;48.016;7.802;2023-08-06T10:55:25;14.70;97.40
7325;DHT22;3703;48.016;7.802;2023-08-06T10:57:55;14.60;97.20
7325;DHT22;3703;48.016;7.802;2023-08-06T11:00:24;14.50;96.40
7325;DHT22;3703;48.016;7.802;2023-08-06T11:02:52;14.50;98.40
7325;DHT22;3703;48.016;7.802;2023-08-06T11:05:20;14.50;99.50
7325;DHT22;3703;48.016;7.802;2023-08-06T11:07:52;14.70;99.90
7325;DHT22;3703;48.016;7.802;2023-08-06T11:10:20;14.70;99.60
7325;DHT22;3703;48.016;7.802;2023-08-06T11:12:48;14.70;99.90
7325;DHT22;3703;48.016;7.802;2023-08-06T11:15:15;14.80;99.90
7325;DHT22;3703;48.016;7.802;2023-08-06T11:17:42;14.80;99.50
7325;DHT22;3703;48.016;7.802;2023-08-06T11:20:10;14.90;98.20
7325;DHT22;3703;48.016;7.802;2023-08-06T11:22:37;14.90;99.00
7325;DHT22;3703;48.016;7.802;2023-08-06T11:25:06;15.10;98.60
7325;DHT22;3703;48.016;7.802;2023-08-06T11:27:34;15.10;82.90
7325;DHT22;3703;48.016;7.802;2023-08-06T11:30:03;15.20;86.00
7325;DHT22;3703;48.016;7.802;2023-08-06T11:32:30;15.20;88.10
7325;DHT22;3703;48.016;7.802;2023-08-06T11:34:59;15.40;88.50
7325;DHT22;3703;48.016;7.802;2023-08-06T11:37:26;15.40;72.20
7325;DHT22;3703;48.016;7.802;2023-08-06T11:39:53;15.40;78.20
7325;DHT22;3703;48.016;7.802;2023-08-06T11:42:23;15.40;83.60
7325;DHT22;3703;48.016;7.802;2023-08-06T11:44:50;15.60;74.30
7325;DHT22;3703;48.016;7.802;2023-08-06T11:47:19;14.60;59.00
7325;DHT22;3703;48.016;7.802;2023-08-06T11:49:47;16.20;61.00
7325;DHT22;3703;48.016;7.802;2023-08-06T11:52:16;16.30;51.30
7325;DHT22;3703;48.016;7.802;2023-08-06T11:54:46;16.10;49.80
7325;DHT22;3703;48.016;7.802;2023-08-06T11:57:15;16.30;62.50
7325;DHT22;3703;48.016;7.802;2023-08-06T11:59:43;16.10;65.40
7325;DHT22;3703;48.016;7.802;2023-08-06T12:02:11;15.90;69.40
7325;DHT22;3703;48.016;7.802;2023-08-06T12:05:02;15.70;86.00
7325;DHT22;3703;48.016;7.802;2023-08-06T12:07:32;17.40;93.10
7325;DHT22;3703;48.016;7.802;2023-08-06T12:10:00;15.70;94.70
7325;DHT22;3703;48.016;7.802;2023-08-06T12:12:27;15.60;95.70
7325;DHT22;3703;48.016;7.802;2023-08-06T12:14:55;15.80;93.30
7325;DHT22;3703;48.016;7.802;2023-08-06T12:17:23;16.00;92.70
7325;DHT22;3703;48.016;7.802;2023-08-06T12:19:51;16.20;87.00
7325;DHT22;3703;48.016;7.802;2023-08-06T12:22:21;16.60;67.30
7325;DHT22;3703;48.016;7.802;2023-08-06T12:24:48;16.70;52.40
7325;DHT22;3703;48.016;7.802;2023-08-06T12:27:15;16.60;61.00
7325;DHT22;3703;48.016;7.802;2023-08-06T12:29:44;16.70;65.30
7325;DHT22;3703;48.016;7.802;2023-08-06T12:32:14;16.70;49.70
7325;DHT22;3703;48.016;7.802;2023-08-06T12:34:42;16.80;68.20
7325;DHT22;3703;48.016;7.802;2023-08-06T12:37:09;17.40;44.80
7325;DHT22;3703;48.016;7.802;2023-08-06T12:39:38;17.60;38.60
7325;DHT22;3703;48.016;7.802;2023-08-06T12:42:06;19.00;50.40
7325;DHT22;3703;48.016;7.802;2023-08-06T12:44:33;17.00;43.80
7325;DHT22;3703;48.016;7.802;2023-08-06T12:47:15;16.90;31.50
7325;DHT22;3703;48.016;7.802;2023-08-06T12:49:42;16.90;39.00
7325;DHT22;3703;48.016;7.802;2023-08-06T12:52:11;16.10;14.00
7325;DHT22;3703;48.016;7.802;2023-08-06T12:54:42;16.10;1.00
7325;DHT22;3703;48.016;7.802;2023-08-06T12:57:11;15.90;9.40
7325;DHT22;3703;48.016;7.802;2023-08-06T12:59:38;18.00;35.10
7325;DHT22;3703;48.016;7.802;2023-08-06T13:02:05;17.20;12.40
7325;DHT22;3703;48.016;7.802;2023-08-06T13:04:33;15.90;6.80
7325;DHT22;3703;48.016;7.802;2023-08-06T13:07:00;17.50;1.00
7325;DHT22;3703;48.016;7.802;2023-08-06T13:09:28;17.70;1.00
7325;DHT22;3703;48.016;7.802;2023-08-06T13:11:58;18.60;1.00
7325;DHT22;3703;48.016;7.802;2023-08-06T13:14:25;18.70;1.00
7325;DHT22;3703;48.016;7.802;2023-08-06T13:16:53;19.30;1.00
7325;DHT22;3703;48.016;7.802;2023-08-06T13:19:21;19.50;1.00
7325;DHT22;3703;48.016;7.802;2023-08-06T13:22:08;18.80;1.00
7325;DHT22;3703;48.016;7.802;2023-08-06T13:24:35;18.60;1.00
7325;DHT22;3703;48.016;7.802;2023-08-06T13:27:05;17.90;99.90
7325;DHT22;3703;48.016;7.802;2023-08-06T13:29:32;17.50;99.90
7325;DHT22;3703;48.016;7.802;2023-08-06T13:31:59;17.00;99.90
7325;DHT22;3703;48.016;7.802;2023-08-06T13:34:26;17.00;99.90
7325;DHT22;3703;48.016;7.802;2023-08-06T13:36:58;17.20;1.00
7325;DHT22;3703;48.016;7.802;2023-08-06T13:39:25;17.40;1.00
7325;DHT22;3703;48.016;7.802;2023-08-06T13:41:53;17.80;1.00
7325;DHT22;3703;48.016;7.802;2023-08-06T13:44:21;17.80;99.90
7325;DHT22;3703;48.016;7.802;2023-08-06T13:46:51;18.00;1.00
7325;DHT22;3703;48.016;7.802;2023-08-06T13:49:18;18.00;1.00
7325;DHT22;3703;48.016;7.802;2023-08-06T13:51:46;18.50;1.00
7325;DHT22;3703;48.016;7.802;2023-08-06T13:54:14;18.80;99.90
7325;DHT22;3703;48.016;7.802;2023-08-06T13:56:42;18.70;99.90
7325;DHT22;3703;48.016;7.802;2023-08-06T13:59:09;18.30;99.90
7325;DHT22;3703;48.016;7.802;2023-08-06T14:01:40;18.40;99.90
7325;DHT22;3703;48.016;7.802;2023-08-06T14:04:07;18.70;99.90
7325;DHT22;3703;48.016;7.802;2023-08-06T14:06:35;18.50;99.90
7325;DHT22;3703;48.016;7.802;2023-08-06T14:09:03;18.70;99.90
7325;DHT22;3703;48.016;7.802;2023-08-06T14:11:30;18.20;1.00
7325;DHT22;3703;48.016;7.802;2023-08-06T14:13:57;18.10;99.90
7325;DHT22;3703;48.016;7.802;2023-08-06T14:16:25;18.00;99.90
7325;DHT22;3703;48.016;7.802;2023-08-06T14:18:54;16.80;99.90
7325;DHT22;3703;48.016;7.802;2023-08-06T14:21:21;17.50;99.90
7325;DHT22;3703;48.016;7.802;2023-08-06T14:23:48;17.20;99.90
7325;DHT22;3703;48.016;7.802;2023-08-06T14:26:16;16.90;1.00
7325;DHT22;3703;48.016;7.802;2023-08-06T14:28:43;16.70;1.00
7325;DHT22;3703;48.016;7.802;2023-08-06T14:31:10;16.60;1.00
7325;DHT22;3703;48.016;7.802;2023-08-06T14:33:38;16.30;1.00
7325;DHT22;3703;48.016;7.802;2023-08-06T14:36:06;16.40;1.00
7325;DHT22;3703;48.016;7.802;2023-08-06T14:38:34;16.60;1.00
7325;DHT22;3703;48.016;7.802;2023-08-06T14:41:01;17.00;1.00
7325;DHT22;3703;48.016;7.802;2023-08-06T14:43:28;17.30;1.00
7325;DHT22;3703;48.016;7.802;2023-08-06T14:45:56;17.40;1.00
7325;DHT22;3703;48.016;7.802;2023-08-06T14:48:23;17.80;1.00
7325;DHT22;3703;48.016;7.802;2023-08-06T14:50:53;17.60;1.00
7325;DHT22;3703;48.016;7.802;2023-08-06T14:53:22;17.60;1.00
7325;DHT22;3703;48.016;7.802;2023-08-06T14:55:49;17.50;1.00
7325;DHT22;3703;48.016;7.802;2023-08-06T14:58:16;17.60;1.00
7325;DHT22;3703;48.016;7.802;2023-08-06T15:00:45;17.60;1.00
7325;DHT22;3703;48.016;7.802;2023-08-06T15:03:12;17.70;1.00
7325;DHT22;3703;48.016;7.802;2023-08-06T15:05:39;19.00;1.00
7325;DHT22;3703;48.016;7.802;2023-08-06T15:08:10;17.80;1.00
7325;DHT22;3703;48.016;7.802;2023-08-06T15:10:38;17.90;1.00
7325;DHT22;3703;48.016;7.802;2023-08-06T15:13:05;17.60;1.00
7325;DHT22;3703;48.016;7.802;2023-08-06T15:15:33;17.50;1.00
7325;DHT22;3703;48.016;7.802;2023-08-06T15:18:00;17.30;99.90
7325;DHT22;3703;48.016;7.802;2023-08-06T15:20:27;17.20;99.90
7325;DHT22;3703;48.016;7.802;2023-08-06T15:22:54;17.00;99.90
7325;DHT22;3703;48.016;7.802;2023-08-06T15:25:23;16.90;99.90
7325;DHT22;3703;48.016;7.802;2023-08-06T15:27:52;17.00;1.00
7325;DHT22;3703;48.016;7.802;2023-08-06T15:30:19;16.90;1.00
7325;DHT22;3703;48.016;7.802;2023-08-06T15:32:47;17.10;1.00
7325;DHT22;3703;48.016;7.802;2023-08-06T15:35:14;16.90;99.90
7325;DHT22;3703;48.016;7.802;2023-08-06T15:37:41;16.90;1.00
7325;DHT22;3703;48.016;7.802;2023-08-06T15:40:10;17.20;1.00
7325;DHT22;3703;48.016;7.802;2023-08-06T15:42:38;17.10;1.00
7325;DHT22;3703;48.016;7.802;2023-08-06T15:45:07;17.10;1.00
7325;DHT22;3703;48.016;7.802;2023-08-06T15:47:35;17.70;1.00
7325;DHT22;3703;48.016;7.802;2023-08-06T15:50:06;18.10;99.90
7325;DHT22;3703;48.016;7.802;2023-08-06T15:52:34;17.90;99.90
7325;DHT22;3703;48.016;7.802;2023-08-06T15:55:02;18.10;99.90
7325;DHT22;3703;48.016;7.802;2023-08-06T15:57:31;18.10;99.90
7325;DHT22;3703;48.016;7.802;2023-08-06T15:59:58;17.90;1.00
7325;DHT22;3703;48.016;7.802;2023-08-06T16:02:27;17.60;99.90
7325;DHT22;3703;48.016;7.802;2023-08-06T16:04:55;17.70;99.90
7325;DHT22;3703;48.016;7.802;2023-08-06T16:07:23;17.70;1.00
7325;DHT22;3703;48.016;7.802;2023-08-06T16:09:51;17.60;1.00
7325;DHT22;3703;48.016;7.802;2023-08-06T16:12:19;17.50;1.00
7325;DHT22;3703;48.016;7.802;2023-08-06T16:14:46;17.60;20.00
7325;DHT22;3703;48.016;7.802;2023-08-06T16:17:14;17.90;1.00
7325;DHT22;3703;48.016;7.802;2023-08-06T16:19:43;17.70;99.90
7325;DHT22;3703;48.016;7.802;2023-08-06T16:22:10;17.80;99.90
7325;DHT22;3703;48.016;7.802;2023-08-06T16:24:37;17.80;99.90
7325;DHT22;3703;48.016;7.802;2023-08-06T16:27:05;17.70;98.40
7325;DHT22;3703;48.016;7.802;2023-08-06T16:29:33;17.50;1.00
7325;DHT22;3703;48.016;7.802;2023-08-06T16:32:00;17.60;99.90
7325;DHT22;3703;48.016;7.802;2023-08-06T16:34:30;17.60;99.90
7325;DHT22;3703;48.016;7.802;2023-08-06T16:36:59;17.50;99.90
7325;DHT22;3703;48.016;7.802;2023-08-06T16:39:26;17.40;99.90
7325;DHT22;3703;48.016;7.802;2023-08-06T16:41:55;17.70;99.90
7325;DHT22;3703;48.016;7.802;2023-08-06T16:44:24;18.30;99.90
7325;DHT22;3703;48.016;7.802;2023-08-06T16:46:51;18.10;26.10
7325;DHT22;3703;48.016;7.802;2023-08-06T16:49:19;18.00;99.90
7325;DHT22;3703;48.016;7.802;2023-08-06T16:51:46;18.00;1.00
7325;DHT22;3703;48.016;7.802;2023-08-06T16:54:15;18.20;1.00
7325;DHT22;3703;48.016;7.802;2023-08-06T16:56:42;18.50;1.00
7325;DHT22;3703;48.016;7.802;2023-08-06T16:59:09;18.60;1.00
7325;DHT22;3703;48.016;7.802;2023-08-06T17:01:36;18.50;1.00
7325;DHT22;3703;48.016;7.802;2023-08-06T17:04:05;18.50;1.00
7325;DHT22;3703;48.016;7.802;2023-08-06T17:06:32;18.50;1.00
7325;DHT22;3703;48.016;7.802;2023-08-06T17:08:59;18.20;1.00
7325;DHT22;3703;48.016;7.802;2023-08-06T17:11:30;18.40;1.00
7325;DHT22;3703;48.016;7.802;2023-08-06T17:13:58;18.50;1.00
7325;DHT22;3703;48.016;7.802;2023-08-06T17:16:25;18.40;1.00
7325;DHT22;3703;48.016;7.802;2023-08-06T17:18:53;18.60;1.00
7325;DHT22;3703;48.016;7.802;2023-08-06T17:21:20;18.70;1.00
7325;DHT22;3703;48.016;7.802;2023-08-06T17:23:47;18.60;1.00
7325;DHT22;3703;48.016;7.802;2023-08-06T17:26:14;18.40;1.00
7325;DHT22;3703;48.016;7.802;2023-08-06T17:28:43;18.70;1.00
7325;DHT22;3703;48.016;7.802;2023-08-06T17:31:10;17.60;1.00
7325;DHT22;3703;48.016;7.802;2023-08-06T17:33:38;17.60;1.00
7325;DHT22;3703;48.016;7.802;2023-08-06T17:36:05;17.40;1.00
7325;DHT22;3703;48.016;7.802;2023-08-06T17:38:33;17.00;1.00
7325;DHT22;3703;48.016;7.802;2023-08-06T17:41:00;16.70;1.00
7325;DHT22;3703;48.016;7.802;2023-08-06T17:43:30;16.50;1.00
7325;DHT22;3703;48.016;7.802;2023-08-06T17:46:00;15.20;1.00
7325;DHT22;3703;48.016;7.802;2023-08-06T17:48:28;16.30;1.00
7325;DHT22;3703;48.016;7.802;2023-08-06T17:50:55;16.40;1.00
7325;DHT22;3703;48.016;7.802;2023-08-06T17:53:23;16.50;1.00
7325;DHT22;3703;48.016;7.802;2023-08-06T17:55:50;16.50;1.00
7325;DHT22;3703;48.016;7.802;2023-08-06T17:58:18;16.70;1.00
7325;DHT22;3703;48.016;7.802;2023-08-06T18:00:45;16.30;1.00
7325;DHT22;3703;48.016;7.802;2023-08-06T18:03:16;17.20;1.00
7325;DHT22;3703;48.016;7.802;2023-08-06T18:05:45;17.50;1.00
7325;DHT22;3703;48.016;7.802;2023-08-06T18:08:12;17.30;1.00
7325;DHT22;3703;48.016;7.802;2023-08-06T18:10:40;17.80;1.00
7325;DHT22;3703;48.016;7.802;2023-08-06T18:13:07;18.10;1.00
7325;DHT22;3703;48.016;7.802;2023-08-06T18:15:35;18.50;99.90
7325;DHT22;3703;48.016;7.802;2023-08-06T18:18:03;18.60;99.90
7325;DHT22;3703;48.016;7.802;2023-08-06T18:20:32;18.50;99.90
7325;DHT22;3703;48.016;7.802;2023-08-06T18:22:59;18.80;99.90
7325;DHT22;3703;48.016;7.802;2023-08-06T18:25:26;18.70;99.90
7325;DHT22;3703;48.016;7.802;2023-08-06T18:27:54;18.50;99.90
7325;DHT22;3703;48.016;7.802;2023-08-06T18:30:21;18.30;99.90
7325;DHT22;3703;48.016;7.802;2023-08-06T18:32:49;18.10;99.90
7325;DHT22;3703;48.016;7.802;2023-08-06T18:35:16;17.70;99.90
7325;DHT22;3703;48.016;7.802;2023-08-06T18:37:45;17.60;99.90
7325;DHT22;3703;48.016;7.802;2023-08-06T18:40:12;17.80;99.90
7325;DHT22;3703;48.016;7.802;2023-08-06T18:42:41;17.60;99.90
7325;DHT22;3703;48.016;7.802;2023-08-06T18:45:09;17.50;1.00
7325;DHT22;3703;48.016;7.802;2023-08-06T18:47:38;17.50;99.90
7325;DHT22;3703;48.016;7.802;2023-08-06T18:50:05;17.70;1.00
7325;DHT22;3703;48.016;7.802;2023-08-06T18:52:33;18.10;99.90
7325;DHT22;3703;48.016;7.802;2023-08-06T18:55:02;18.30;99.90
7325;DHT22;3703;48.016;7.802;2023-08-06T18:57:29;18.70;99.90
7325;DHT22;3703;48.016;7.802;2023-08-06T18:59:58;18.40;99.90
7325;DHT22;3703;48.016;7.802;2023-08-06T19:02:25;18.20;99.90
7325;DHT22;3703;48.016;7.802;2023-08-06T19:04:53;18.20;99.90
7325;DHT22;3703;48.016;7.802;2023-08-06T19:07:23;17.50;99.90
7325;DHT22;3703;48.016;7.802;2023-08-06T19:09:50;17.50;1.00
7325;DHT22;3703;48.016;7.802;2023-08-06T19:12:18;17.10;1.00
7325;DHT22;3703;48.016;7.802;2023-08-06T19:14:46;17.20;1.00
7325;DHT22;3703;48.016;7.802;2023-08-06T19:17:14;17.30;1.00
7325;DHT22;3703;48.016;7.802;2023-08-06T19:19:41;17.30;1.00
7325;DHT22;3703;48.016;7.802;2023-08-06T19:22:09;16.90;1.00
7325;DHT22;3703;48.016;7.802;2023-08-06T19:24:36;17.10;1.00
7325;DHT22;3703;48.016;7.802;2023-08-06T19:27:04;17.00;1.00
7325;DHT22;3703;48.016;7.802;2023-08-06T19:29:33;16.80;1.00
7325;DHT22;3703;48.016;7.802;2023-08-06T19:32:01;16.80;1.00
7325;DHT22;3703;48.016;7.802;2023-08-06T19:34:29;16.50;1.00
7325;DHT22;3703;48.016;7.802;2023-08-06T19:36:56;16.50;1.00
7325;DHT22;3703;48.016;7.802;2023-08-06T19:39:23;16.40;1.00
7325;DHT22;3703;48.016;7.802;2023-08-06T19:41:50;16.40;1.00
7325;DHT22;3703;48.016;7.802;2023-08-06T19:44:17;16.50;1.00
7325;DHT22;3703;48.016;7.802;2023-08-06T19:46:46;16.40;1.00
7325;DHT22;3703;48.016;7.802;2023-08-06T19:49:13;16.50;1.00
7325;DHT22;3703;48.016;7.802;2023-08-06T19:51:40;16.50;1.00
7325;DHT22;3703;48.016;7.802;2023-08-06T19:54:09;16.70;1.00
7325;DHT22;3703;48.016;7.802;2023-08-06T19:56:36;16.70;99.90
7325;DHT22;3703;48.016;7.802;2023-08-06T19:59:03;16.60;1.00
7325;DHT22;3703;48.016;7.802;2023-08-06T20:01:31;16.40;1.00
7325;DHT22;3703;48.016;7.802;2023-08-06T20:04:00;16.40;1.00
7325;DHT22;3703;48.016;7.802;2023-08-06T20:06:27;16.70;1.00
7325;DHT22;3703;48.016;7.802;2023-08-06T20:08:55;17.10;99.90
7325;DHT22;3703;48.016;7.802;2023-08-06T20:11:23;17.20;99.90
7325;DHT22;3703;48.016;7.802;2023-08-06T20:13:50;17.90;99.90
7325;DHT22;3703;48.016;7.802;2023-08-06T20:16:17;16.90;99.90
7325;DHT22;3703;48.016;7.802;2023-08-06T20:18:44;18.80;99.90
7325;DHT22;3703;48.016;7.802;2023-08-06T20:21:12;19.10;1.00
7325;DHT22;3703;48.016;7.802;2023-08-06T20:23:41;19.30;1.00
7325;DHT22;3703;48.016;7.802;2023-08-06T20:26:08;19.50;99.90
7325;DHT22;3703;48.016;7.802;2023-08-06T20:28:36;19.40;1.00
7325;DHT22;3703;48.016;7.802;2023-08-06T20:31:03;19.30;1.00
7325;DHT22;3703;48.016;7.802;2023-08-06T20:33:32;19.40;1.00
7325;DHT22;3703;48.016;7.802;2023-08-06T20:35:59;19.00;99.90
7325;DHT22;3703;48.016;7.802;2023-08-06T20:38:27;18.50;99.90
7325;DHT22;3703;48.016;7.802;2023-08-06T20:40:55;18.30;99.90
7325;DHT22;3703;48.016;7.802;2023-08-06T20:43:22;17.90;99.90
7325;DHT22;3703;48.016;7.802;2023-08-06T20:45:54;17.20;99.90
7325;DHT22;3703;48.016;7.802;2023-08-06T20:48:22;16.80;1.00
7325;DHT22;3703;48.016;7.802;2023-08-06T20:50:49;16.80;1.00
7325;DHT22;3703;48.016;7.802;2023-08-06T20:53:17;16.90;1.00
7325;DHT22;3703;48.016;7.802;2023-08-06T20:55:46;16.50;99.90
7325;DHT22;3703;48.016;7.802;2023-08-06T20:58:13;16.40;1.00
7325;DHT22;3703;48.016;7.802;2023-08-06T21:00:41;16.20;1.00
7325;DHT22;3703;48.016;7.802;2023-08-06T21:03:09;16.20;1.00
7325;DHT22;3703;48.016;7.802;2023-08-06T21:05:36;16.10;1.00
7325;DHT22;3703;48.016;7.802;2023-08-06T21:08:03;16.20;1.00
7325;DHT22;3703;48.016;7.802;2023-08-06T21:10:30;16.40;1.00
7325;DHT22;3703;48.016;7.802;2023-08-06T21:12:59;16.10;1.00
7325;DHT22;3703;48.016;7.802;2023-08-06T21:15:26;16.10;1.00
7325;DHT22;3703;48.016;7.802;2023-08-06T21:17:53;15.80;1.00
7325;DHT22;3703;48.016;7.802;2023-08-06T21:20:20;16.00;1.00
7325;DHT22;3703;48.016;7.802;2023-08-06T21:22:47;15.90;1.00
7325;DHT22;3703;48.016;7.802;2023-08-06T21:25:15;16.00;1.00
7325;DHT22;3703;48.016;7.802;2023-08-06T21:27:42;16.10;1.00
7325;DHT22;3703;48.016;7.802;2023-08-06T21:30:14;16.20;1.00
7325;DHT22;3703;48.016;7.802;2023-08-06T21:32:42;16.10;1.00
7325;DHT22;3703;48.016;7.802;2023-08-06T21:35:09;15.70;1.00
7325;DHT22;3703;48.016;7.802;2023-08-06T21:37:36;16.00;1.00
7325;DHT22;3703;48.016;7.802;2023-08-06T21:40:04;16.00;1.00
7325;DHT22;3703;48.016;7.802;2023-08-06T21:42:32;16.10;1.00
7325;DHT22;3703;48.016;7.802;2023-08-06T21:45:00;16.40;1.00
7325;DHT22;3703;48.016;7.802;2023-08-06T21:47:28;16.20;1.00
7325;DHT22;3703;48.016;7.802;2023-08-06T21:49:55;16.10;1.00
7325;DHT22;3703;48.016;7.802;2023-08-06T21:52:23;16.00;1.00
7325;DHT22;3703;48.016;7.802;2023-08-06T21:54:50;16.30;1.00
7325;DHT22;3703;48.016;7.802;2023-08-06T21:57:18;16.40;1.00
7325;DHT22;3703;48.016;7.802;2023-08-06T21:59:45;16.40;1.00
7325;DHT22;3703;48.016;7.802;2023-08-06T22:02:12;16.50;1.00
7325;DHT22;3703;48.016;7.802;2023-08-06T22:04:41;16.80;1.00
7325;DHT22;3703;48.016;7.802;2023-08-06T22:07:08;16.40;1.00
7325;DHT22;3703;48.016;7.802;2023-08-06T22:09:35;16.30;1.00
7325;DHT22;3703;48.016;7.802;2023-08-06T22:12:04;16.30;1.00
7325;DHT22;3703;48.016;7.802;2023-08-06T22:14:32;16.20;1.00
7325;DHT22;3703;48.016;7.802;2023-08-06T22:16:59;15.90;1.00
7325;DHT22;3703;48.016;7.802;2023-08-06T22:19:26;16.00;1.00
7325;DHT22;3703;48.016;7.802;2023-08-06T22:21:54;16.00;1.00
7325;DHT22;3703;48.016;7.802;2023-08-06T22:24:22;15.90;1.00
7325;DHT22;3703;48.016;7.802;2023-08-06T22:26:49;16.10;1.00
7325;DHT22;3703;48.016;7.802;2023-08-06T22:29:16;15.70;1.00
7325;DHT22;3703;48.016;7.802;2023-08-06T22:31:43;16.10;1.00
7325;DHT22;3703;48.016;7.802;2023-08-06T22:34:10;16.50;1.00
7325;DHT22;3703;48.016;7.802;2023-08-06T22:36:37;16.90;99.90
7325;DHT22;3703;48.016;7.802;2023-08-06T22:39:06;17.00;99.90